Terminal Aerodrome Forecast
Issued by NWS

Home | Current Version | Previous Version | Text Only | Print | Product List | Glossary On
Versions: 1 2 3 4 5 6 7 8 9 10 11 12 13 14 15 16 17 18 19 20 21 22 23 24 25 26
801
FTAK31 PANC 060535
TAFAVD
TAF
PAVD 060535Z 0606/0706 08006KT P6SM VCSH BKN045
      TEMPO 0608/0612 6SM -SHSN BKN035
     FM061200 VRB03KT 6SM -SHSN BKN035
     FM070000 VRB03KT P6SM VCSH BKN045
      AMD LTD TO CLD VIS AND WIND=

USA.gov is the U.S. government's official web portal to all federal, state and local government web resources and services.